Time;durP1;ratioP1;P1;durP2;ratioP2;P2;SDS_P1;SDS_P2;PMS_P1;PMS_P2;Temp;Humidity;BMP_temperature;BMP_pressure;BME280_temperature;BME280_humidity;BME280_pressure;Samples;Min_cycle;Max_cycle;Signal;HPM_P1;HPM_P2
2023/10/12 00:02:27;;;;;;;13.95;5.90;;;20.20;31.50;;;;;;5010708;28;20421;-76
2023/10/12 00:07:45;;;;;;;18.83;6.33;;;20.20;31.40;;;;;;5011208;28;20563;-76
2023/10/12 00:12:44;;;;;;;18.75;6.50;;;20.20;31.60;;;;;;5011866;28;20462;-76
2023/10/12 00:17:52;;;;;;;17.38;6.20;;;20.20;31.50;;;;;;5011238;28;20408;-76
2023/10/12 00:23:09;;;;;;;12.90;5.97;;;20.10;31.90;;;;;;5010568;28;20472;-76
2023/10/12 00:25:47;;;;;;;14.68;6.20;;;20.00;32.00;;;;;;5010956;28;20387;-76
2023/10/12 00:28:23;;;;;;;18.10;6.70;;;20.10;31.70;;;;;;5010732;28;20882;-75
2023/10/12 00:30:54;;;;;;;18.10;6.70;;;20.10;33.00;;;;;;5010790;28;20404;-75
2023/10/12 00:33:20;;;;;;;16.67;6.35;;;20.10;33.50;;;;;;5009640;28;20488;-75
2023/10/12 00:36:03;;;;;;;16.45;6.72;;;20.00;33.80;;;;;;5011257;28;20475;-76
2023/10/12 00:38:29;;;;;;;13.32;6.20;;;19.90;35.20;;;;;;5010819;28;20415;-75
2023/10/12 00:41:00;;;;;;;16.33;6.68;;;19.80;35.90;;;;;;5010738;28;20413;-73
2023/10/12 00:43:35;;;;;;;14.60;6.72;;;19.70;34.80;;;;;;5010746;28;20807;-74
2023/10/12 00:46:16;;;;;;;19.48;6.72;;;19.80;34.70;;;;;;5011070;28;20388;-74
2023/10/12 00:48:47;;;;;;;14.43;5.90;;;19.70;35.30;;;;;;5011333;28;20469;-76
2023/10/12 00:51:16;;;;;;;19.77;6.47;;;19.70;35.00;;;;;;5010987;28;20970;-75
2023/10/12 00:53:55;;;;;;;12.13;6.07;;;19.60;35.90;;;;;;5010813;28;20396;-76
2023/10/12 00:56:22;;;;;;;16.15;6.53;;;19.60;34.70;;;;;;5010933;28;20391;-75
2023/10/12 00:58:50;;;;;;;18.00;6.25;;;19.60;34.40;;;;;;5010784;28;20391;-75
2023/10/12 01:01:18;;;;;;;17.48;6.10;;;19.70;34.30;;;;;;5010696;28;20393;-73
2023/10/12 01:03:45;;;;;;;19.05;6.80;;;19.70;34.40;;;;;;5010605;28;20465;-74
2023/10/12 01:08:43;;;;;;;15.97;6.33;;;19.60;33.90;;;;;;5011646;28;21045;-75
2023/10/12 01:11:17;;;;;;;16.02;6.03;;;19.60;34.10;;;;;;5011693;28;20499;-75
2023/10/12 01:13:45;;;;;;;18.65;6.30;;;19.60;33.90;;;;;;4992507;28;20408;-75
2023/10/12 01:16:23;;;;;;;15.15;6.47;;;19.60;33.50;;;;;;5010848;28;20396;-75
2023/10/12 01:18:55;;;;;;;15.52;6.40;;;19.60;33.70;;;;;;5010824;28;20385;-75
2023/10/12 01:21:21;;;;;;;14.27;6.43;;;19.50;34.10;;;;;;5010148;28;20396;-75
2023/10/12 01:23:50;;;;;;;14.80;6.43;;;19.50;34.20;;;;;;5010524;28;20899;-74
2023/10/12 01:26:17;;;;;;;15.98;6.20;;;19.50;34.60;;;;;;5010064;28;20452;-75
2023/10/12 01:28:48;;;;;;;17.60;6.45;;;19.40;34.70;;;;;;5010093;28;20396;-76
2023/10/12 01:31:18;;;;;;;14.75;5.85;;;19.40;34.60;;;;;;5010370;28;20440;-75
2023/10/12 01:33:44;;;;;;;14.75;6.20;;;19.40;34.40;;;;;;5011022;28;20921;-76
2023/10/12 01:36:11;;;;;;;17.43;6.20;;;19.40;34.60;;;;;;4992680;28;20519;-75
2023/10/12 01:38:37;;;;;;;16.45;6.32;;;19.30;35.10;;;;;;5010275;28;20884;-75
2023/10/12 01:41:09;;;;;;;14.85;6.25;;;19.20;35.40;;;;;;5011197;28;20392;-73
2023/10/12 01:43:35;;;;;;;13.82;6.32;;;19.20;35.40;;;;;;5010701;28;20756;-76
2023/10/12 01:46:08;;;;;;;16.30;6.38;;;19.10;36.00;;;;;;5013434;28;20395;-76
2023/10/12 01:48:34;;;;;;;12.68;5.80;;;19.10;35.90;;;;;;5013940;28;20471;-76
2023/10/12 01:51:14;;;;;;;14.15;6.10;;;19.10;36.40;;;;;;5013564;28;20416;-76
2023/10/12 01:53:40;;;;;;;18.00;6.30;;;19.00;36.90;;;;;;5013432;28;20939;-76
2023/10/12 01:56:15;;;;;;;15.63;6.30;;;19.00;36.90;;;;;;5013659;28;20468;-76
2023/10/12 01:58:43;;;;;;;17.88;7.10;;;19.00;37.00;;;;;;5013671;28;20381;-75
2023/10/12 02:01:18;;;;;;;16.75;6.90;;;18.90;38.00;;;;;;5013559;28;20423;-76
2023/10/12 02:03:44;;;;;;;16.73;7.50;;;18.80;38.80;;;;;;5013636;28;20396;-74
2023/10/12 02:06:16;;;;;;;21.30;7.30;;;18.80;39.30;;;;;;5013847;28;20389;-76
2023/10/12 02:08:46;;;;;;;15.10;7.07;;;18.70;39.70;;;;;;5013344;28;20430;-75
2023/10/12 02:13:47;;;;;;;18.50;8.00;;;18.60;41.70;;;;;;5012687;28;20397;-75
2023/10/12 02:16:13;;;;;;;16.40;7.45;;;18.60;42.80;;;;;;5013128;28;20395;-74
2023/10/12 02:18:39;;;;;;;23.30;7.90;;;18.50;44.80;;;;;;5013075;28;20439;-74
2023/10/12 02:21:10;;;;;;;17.77;7.95;;;18.20;46.00;;;;;;5013065;28;20945;-74
2023/10/12 02:26:51;;;;;;;20.60;8.50;;;17.90;49.80;;;;;;5012868;28;20496;-75
2023/10/12 02:29:18;;;;;;;16.02;8.00;;;17.80;50.00;;;;;;5012594;28;20396;-75
2023/10/12 02:34:18;;;;;;;19.38;9.50;;;17.70;53.40;;;;;;5012460;28;20458;-74
2023/10/12 02:37:00;;;;;;;18.40;8.82;;;17.60;57.00;;;;;;5012709;28;20381;-73
2023/10/12 02:39:30;;;;;;;16.95;9.02;;;17.60;56.60;;;;;;5012489;28;20455;-74
2023/10/12 02:44:57;;;;;;;18.85;9.90;;;17.40;56.20;;;;;;5012738;28;20389;-74
2023/10/12 02:47:46;;;;;;;21.75;9.18;;;17.40;57.80;;;;;;5012638;28;20451;-75
2023/10/12 02:52:43;;;;;;;19.70;11.00;;;17.30;57.90;;;;;;5012321;28;20405;-74
2023/10/12 02:57:54;;;;;;;21.83;10.40;;;17.10;62.10;;;;;;5011657;28;20387;-75
2023/10/12 03:00:43;;;;;;;22.25;10.30;;;17.10;62.90;;;;;;5012137;28;20395;-75
2023/10/12 03:06:08;;;;;;;18.48;10.32;;;17.10;62.80;;;;;;4978622;28;20474;-74
2023/10/12 03:08:46;;;;;;;24.50;10.93;;;17.20;60.90;;;;;;5012032;28;20392;-75
2023/10/12 03:11:12;;;;;;;17.70;10.82;;;17.20;60.90;;;;;;5011885;28;20408;-75
2023/10/12 03:13:42;;;;;;;17.30;11.05;;;17.20;60.10;;;;;;5019999;23;20430;-74
2023/10/12 03:18:35;;;;;;;22.67;11.05;;;17.20;61.90;;;;;;4993203;28;20905;-74
2023/10/12 03:21:13;;;;;;;24.13;11.45;;;17.10;62.90;;;;;;4992643;28;20478;-74
2023/10/12 03:23:40;;;;;;;22.50;12.30;;;17.10;62.90;;;;;;4993123;28;20398;-75
2023/10/12 03:26:26;;;;;;;28.80;11.48;;;17.00;64.00;;;;;;4993278;28;20509;-74
2023/10/12 03:31:36;;;;;;;21.45;12.48;;;16.90;69.00;;;;;;4993936;28;20509;-73
2023/10/12 03:34:05;;;;;;;24.55;11.23;;;16.80;71.10;;;;;;4992054;28;20425;-74
2023/10/12 03:36:36;;;;;;;22.90;11.50;;;16.80;71.60;;;;;;4994739;28;20387;-74
2023/10/12 03:45:08;;;;;;;23.97;12.30;;;16.90;68.40;;;;;;5009282;28;20537;-72
2023/10/12 03:47:29;;;;;;;24.95;11.00;;;16.90;68.70;;;;;;4984870;28;20402;-73
2023/10/12 03:49:58;;;;;;;21.45;11.50;;;17.00;63.20;;;;;;4992731;28;20397;-73
2023/10/12 03:52:43;;;;;;;22.50;10.83;;;17.10;62.30;;;;;;4992045;28;20498;-73
2023/10/12 04:02:56;;;;;;;22.57;11.43;;;16.90;66.50;;;;;;4992977;28;20397;-74
2023/10/12 04:18:42;;;;;;;23.60;11.02;;;16.90;62.80;;;;;;4991844;28;20409;-73
2023/10/12 04:21:22;;;;;;;21.60;10.80;;;16.80;64.20;;;;;;4992668;28;21007;-73
2023/10/12 04:24:24;;;;;;;22.17;11.00;;;16.70;65.30;;;;;;4991666;28;20461;-74
2023/10/12 04:28:59;;;;;;;23.52;11.30;;;16.70;64.80;;;;;;4992647;28;20936;-73
2023/10/12 04:41:41;;;;;;;21.10;11.13;;;16.50;69.50;;;;;;4992922;28;20434;-73
2023/10/12 04:46:59;;;;;;;26.08;12.80;;;16.50;72.50;;;;;;4993747;28;20801;-74
2023/10/12 04:57:27;;;;;;;27.67;13.55;;;16.40;77.60;;;;;;4991686;28;20905;-74
2023/10/12 05:02:30;;;;;;;28.23;13.15;;;16.40;78.50;;;;;;4991630;28;20390;-73
2023/10/12 05:09:49;;;;;;;27.40;13.47;;;16.40;80.80;;;;;;4991672;28;20409;-75
2023/10/12 05:12:23;;;;;;;26.25;13.25;;;16.30;81.90;;;;;;4989842;28;20917;-73
2023/10/12 05:14:55;;;;;;;22.65;12.57;;;16.30;83.80;;;;;;4990954;28;20406;-74
2023/10/12 05:17:21;;;;;;;25.80;12.88;;;16.30;84.20;;;;;;4990828;28;20386;-74
2023/10/12 05:19:47;;;;;;;23.35;13.00;;;16.30;86.00;;;;;;4992255;28;20827;-73
2023/10/12 05:22:13;;;;;;;26.17;13.02;;;16.30;87.20;;;;;;4994433;28;20505;-73
2023/10/12 05:24:39;;;;;;;31.30;14.17;;;16.20;88.10;;;;;;4994878;28;20531;-74
2023/10/12 05:27:19;;;;;;;29.35;14.88;;;16.20;89.60;;;;;;4996213;28;20395;-73
2023/10/12 05:29:51;;;;;;;27.38;14.32;;;16.20;90.80;;;;;;4994985;28;20885;-74
2023/10/12 05:37:23;;;;;;;25.37;13.73;;;16.10;91.90;;;;;;4994484;28;20394;-72
2023/10/12 05:39:51;;;;;;;25.40;13.75;;;16.10;92.60;;;;;;4993114;28;20390;-75
2023/10/12 05:42:19;;;;;;;28.33;14.00;;;16.10;94.00;;;;;;4994389;28;20441;-73
2023/10/12 05:44:49;;;;;;;30.05;14.90;;;16.10;93.60;;;;;;4993383;28;20394;-74
2023/10/12 05:47:28;;;;;;;26.80;14.57;;;16.10;94.20;;;;;;4994089;28;20394;-73
2023/10/12 05:49:54;;;;;;;29.08;14.40;;;16.10;93.90;;;;;;4994393;28;20468;-73
2023/10/12 05:52:20;;;;;;;20.00;13.50;;;16.10;93.50;;;;;;4994101;28;20917;-74
2023/10/12 05:54:45;;;;;;;32.35;17.02;;;16.10;93.60;;;;;;4994801;28;20437;-74
2023/10/12 05:57:20;;;;;;;25.80;15.23;;;16.10;94.50;;;;;;4994471;28;20501;-74
2023/10/12 05:59:49;;;;;;;30.98;15.75;;;16.10;95.30;;;;;;4995147;28;20393;-74
2023/10/12 06:02:17;;;;;;;37.78;16.40;;;16.20;96.10;;;;;;4994326;28;20394;-75
2023/10/12 06:04:44;;;;;;;27.23;15.48;;;16.10;95.20;;;;;;4999813;28;20398;-74
2023/10/12 06:07:10;;;;;;;26.70;14.90;;;16.10;97.30;;;;;;5001087;28;20393;-75
2023/10/12 06:09:37;;;;;;;25.52;13.85;;;16.10;97.50;;;;;;4996080;28;20473;-73
2023/10/12 06:12:11;;;;;;;24.58;14.50;;;16.20;96.90;;;;;;4992658;28;20920;-74
2023/10/12 06:14:38;;;;;;;27.13;14.68;;;16.20;97.40;;;;;;4994365;28;20402;-73
2023/10/12 06:17:07;;;;;;;29.83;15.90;;;16.10;97.50;;;;;;4993951;28;20386;-74
2023/10/12 06:19:36;;;;;;;29.52;15.35;;;16.20;98.80;;;;;;4993928;28;20834;-73
2023/10/12 06:22:24;;;;;;;26.23;15.05;;;16.20;99.10;;;;;;4993909;28;20622;-73
2023/10/12 06:24:52;;;;;;;26.52;14.43;;;16.10;99.90;;;;;;4994038;28;20395;-74
2023/10/12 06:29:50;;;;;;;30.83;16.60;;;16.10;99.90;;;;;;4993836;28;20405;-75
2023/10/12 06:32:19;;;;;;;30.08;15.70;;;16.20;99.90;;;;;;4992161;28;20417;-74
2023/10/12 06:45:52;;;;;;;28.90;15.90;;;16.10;99.90;;;;;;4990848;28;21037;-74
2023/10/12 06:51:06;;;;;;;31.97;17.67;;;16.30;99.90;;;;;;4993475;28;20397;-73
2023/10/12 06:53:35;;;;;;;30.20;17.00;;;16.30;99.90;;;;;;4993685;28;20383;-74
2023/10/12 06:59:07;;;;;;;34.03;15.70;;;16.30;99.90;;;;;;4994428;28;20892;-75
2023/10/12 07:01:37;;;;;;;24.33;14.90;;;16.30;99.90;;;;;;5001663;28;20466;-73
2023/10/12 07:04:12;;;;;;;28.23;15.20;;;16.30;99.90;;;;;;5004572;28;20394;-74
2023/10/12 07:06:39;;;;;;;28.23;14.45;;;16.50;97.80;;;;;;4998556;28;20565;-74
2023/10/12 07:09:06;;;;;;;34.15;14.82;;;16.50;97.50;;;;;;4993559;28;20915;-74
2023/10/12 07:11:32;;;;;;;30.13;15.38;;;16.50;97.00;;;;;;4992991;28;20406;-73
2023/10/12 07:14:04;;;;;;;30.75;14.15;;;16.50;94.90;;;;;;4994893;28;20482;-76
2023/10/12 07:16:31;;;;;;;28.67;14.30;;;16.60;95.00;;;;;;4991728;28;20433;-73
2023/10/12 07:18:58;;;;;;;26.10;13.15;;;16.60;94.40;;;;;;4991569;28;20402;-75
2023/10/12 07:21:24;;;;;;;26.83;13.90;;;16.60;94.70;;;;;;4992941;28;20409;-74
2023/10/12 07:23:53;;;;;;;29.30;13.93;;;16.60;93.20;;;;;;4992517;28;20897;-74
2023/10/12 07:26:19;;;;;;;21.43;12.80;;;16.60;92.80;;;;;;4992766;28;20407;-74
2023/10/12 07:28:49;;;;;;;28.40;14.30;;;16.70;92.10;;;;;;4993101;28;20397;-74
2023/10/12 07:39:22;;;;;;;25.10;14.07;;;16.80;86.70;;;;;;4975095;28;20526;-74
2023/10/12 07:41:54;;;;;;;34.05;18.50;;;16.80;86.40;;;;;;4992568;28;20394;-73
2023/10/12 07:44:22;;;;;;;47.63;22.00;;;16.90;85.80;;;;;;4992567;28;20391;-72
2023/10/12 07:46:48;;;;;;;29.42;14.00;;;16.90;86.50;;;;;;4993023;28;20418;-73
2023/10/12 07:52:09;;;;;;;25.50;13.43;;;16.90;86.70;;;;;;4992277;28;20428;-73
2023/10/12 07:54:57;;;;;;;30.00;14.07;;;16.90;86.20;;;;;;4993617;28;20390;-76
2023/10/12 07:57:23;;;;;;;26.20;13.98;;;16.90;85.50;;;;;;4992587;28;20429;-73
2023/10/12 08:02:43;;;;;;;27.27;13.60;;;17.00;83.90;;;;;;4992048;28;20401;-74
2023/10/12 08:13:14;;;;;;;23.90;12.68;;;17.20;81.40;;;;;;4991791;28;20496;-76
2023/10/12 08:15:49;;;;;;;25.85;12.48;;;17.30;78.60;;;;;;4992591;28;20389;-72
2023/10/12 08:21:04;;;;;;;26.92;12.90;;;17.30;78.80;;;;;;4992373;28;20393;-75
2023/10/12 08:23:30;;;;;;;22.05;11.52;;;17.50;77.00;;;;;;4992129;28;20857;-74
2023/10/12 08:25:57;;;;;;;21.25;11.95;;;17.70;73.80;;;;;;4991234;28;20394;-73
2023/10/12 08:28:25;;;;;;;22.67;11.30;;;17.90;69.70;;;;;;4992452;28;21376;-75
2023/10/12 08:31:00;;;;;;;26.52;11.43;;;17.80;69.50;;;;;;4991597;28;20490;-75
2023/10/12 08:39:07;;;;;;;24.42;11.43;;;17.70;69.40;;;;;;4992171;28;20892;-75
2023/10/12 08:41:56;;;;;;;22.05;11.77;;;17.60;70.20;;;;;;4991714;28;20390;-73
2023/10/12 08:44:21;;;;;;;23.00;11.30;;;17.60;70.00;;;;;;4991130;28;20406;-74
2023/10/12 08:46:51;;;;;;;20.98;10.82;;;17.70;68.60;;;;;;4991851;28;20402;-73
2023/10/12 08:49:41;;;;;;;27.65;12.07;;;17.70;68.60;;;;;;4987950;28;20415;-74
2023/10/12 08:52:20;;;;;;;27.45;11.20;;;17.80;67.70;;;;;;4987539;28;21095;-74
2023/10/12 08:54:53;;;;;;;22.38;11.63;;;17.90;67.30;;;;;;4990311;28;20700;-74
2023/10/12 08:57:38;;;;;;;25.15;12.45;;;17.90;67.20;;;;;;4993458;28;20936;-73
2023/10/12 09:00:38;;;;;;;36.50;13.23;;;18.00;67.30;;;;;;4991154;28;20406;-74
2023/10/12 09:05:54;;;;;;;22.27;11.73;;;18.10;67.40;;;;;;4993251;28;20500;-74
2023/10/12 09:10:58;;;;;;;38.58;14.38;;;18.20;68.10;;;;;;4991964;28;20398;-75
2023/10/12 09:13:27;;;;;;;25.60;12.38;;;18.10;68.00;;;;;;5009416;23;20431;-76
2023/10/12 09:15:54;;;;;;;20.90;11.88;;;18.10;68.20;;;;;;5032877;28;20868;-77
2023/10/12 09:18:24;;;;;;;22.35;11.32;;;18.10;68.10;;;;;;5033866;28;20441;-77
2023/10/12 09:23:28;;;;;;;21.05;11.93;;;18.30;66.30;;;;;;5033282;28;20465;-77
2023/10/12 09:31:14;;;;;;;29.00;11.63;;;19.00;60.20;;;;;;5033478;28;20403;-75
2023/10/12 09:36:28;;;;;;;18.05;10.60;;;19.10;56.90;;;;;;5033336;28;20379;-75
2023/10/12 09:38:56;;;;;;;21.83;10.90;;;19.10;56.80;;;;;;5031884;28;20383;-76
2023/10/12 09:41:29;;;;;;;27.02;11.05;;;19.20;56.80;;;;;;5033528;28;20409;-75
2023/10/12 09:43:56;;;;;;;22.80;10.63;;;19.30;55.60;;;;;;5031608;28;20394;-75
2023/10/12 09:46:25;;;;;;;21.98;10.05;;;19.30;54.70;;;;;;5033030;28;20391;-76
2023/10/12 09:49:21;;;;;;;19.48;11.18;;;19.30;54.30;;;;;;5033392;28;20383;-76
2023/10/12 09:52:01;;;;;;;23.97;10.27;;;19.40;55.30;;;;;;5031905;28;20538;-76
2023/10/12 09:54:46;;;;;;;26.02;10.25;;;19.60;53.00;;;;;;5032969;28;20786;-76
2023/10/12 09:57:23;;;;;;;24.75;13.60;;;19.70;51.00;;;;;;5032733;28;20414;-77
2023/10/12 09:59:53;;;;;;;22.53;10.57;;;19.90;50.70;;;;;;5032926;28;20459;-75
2023/10/12 10:02:31;;;;;;;21.55;10.27;;;20.30;48.80;;;;;;5032793;28;20390;-76
2023/10/12 10:07:53;;;;;;;24.73;10.70;;;20.90;45.60;;;;;;5032003;28;20402;-75
2023/10/12 10:10:34;;;;;;;25.60;10.90;;;21.00;43.70;;;;;;5032461;28;20466;-75
2023/10/12 10:13:29;;;;;;;19.50;10.40;;;21.10;43.00;;;;;;5032583;28;20405;-76
2023/10/12 10:15:55;;;;;;;23.80;10.70;;;21.30;42.10;;;;;;5032909;28;20957;-75
2023/10/12 10:18:28;;;;;;;19.67;9.45;;;21.40;41.20;;;;;;5032516;28;20399;-76
2023/10/12 10:20:57;;;;;;;28.35;10.30;;;21.50;41.20;;;;;;5032717;28;20741;-75
2023/10/12 10:23:25;;;;;;;25.02;9.15;;;21.50;41.60;;;;;;5031385;28;20383;-75
2023/10/12 10:26:43;;;;;;;20.90;10.10;;;21.40;41.40;;;;;;5032858;28;20441;-76
2023/10/12 10:28:58;;;;;;;20.98;9.93;;;21.40;40.00;;;;;;5021637;28;20478;-75
2023/10/12 10:31:31;;;;;;;16.08;9.88;;;21.50;40.70;;;;;;5031523;28;20825;-77
2023/10/12 10:34:01;;;;;;;22.52;9.60;;;21.60;39.70;;;;;;5036300;28;20490;-77
2023/10/12 10:36:34;;;;;;;19.25;9.75;;;21.60;39.30;;;;;;5032831;28;20375;-77
2023/10/12 10:39:28;;;;;;;19.90;10.27;;;21.50;39.10;;;;;;5031458;28;20387;-76
2023/10/12 10:44:22;;;;;;;23.05;9.90;;;21.70;38.70;;;;;;5033821;28;20383;-76
2023/10/12 10:47:15;;;;;;;20.63;9.85;;;21.80;39.00;;;;;;5033815;28;20383;-76
2023/10/12 10:49:45;;;;;;;19.27;9.75;;;21.70;38.30;;;;;;5033629;28;20924;-76
2023/10/12 10:52:14;;;;;;;23.05;10.43;;;21.70;38.50;;;;;;5032563;28;20438;-77
2023/10/12 10:54:54;;;;;;;15.65;9.60;;;21.70;38.20;;;;;;5034068;28;20471;-75
2023/10/12 10:57:24;;;;;;;25.20;10.43;;;21.60;38.10;;;;;;5032853;28;20447;-76
2023/10/12 10:59:51;;;;;;;24.52;10.05;;;21.50;38.00;;;;;;5032900;28;20391;-76
2023/10/12 11:02:20;;;;;;;17.20;9.15;;;21.40;39.00;;;;;;5033058;28;20386;-76
2023/10/12 11:04:47;;;;;;;20.63;9.90;;;21.30;38.90;;;;;;5032020;28;20495;-77
2023/10/12 11:07:17;;;;;;;20.63;10.10;;;21.40;39.10;;;;;;5032010;28;20387;-77
2023/10/12 11:12:30;;;;;;;23.45;10.40;;;21.30;39.30;;;;;;5032356;28;20407;-76
2023/10/12 11:15:01;;;;;;;22.92;10.02;;;21.10;40.10;;;;;;5031579;28;20939;-78
2023/10/12 11:17:35;;;;;;;23.92;9.50;;;21.10;40.50;;;;;;5031930;28;20383;-76
2023/10/12 11:20:08;;;;;;;23.52;9.70;;;21.00;40.00;;;;;;5031444;28;20383;-75
2023/10/12 11:22:37;;;;;;;20.17;10.27;;;21.00;39.80;;;;;;5031252;28;20390;-77
2023/10/12 11:25:04;;;;;;;25.98;10.43;;;21.00;40.40;;;;;;5031341;28;20382;-76
2023/10/12 11:27:32;;;;;;;19.45;10.07;;;20.90;40.90;;;;;;5029974;28;20909;-77
2023/10/12 11:30:00;;;;;;;20.52;10.30;;;20.80;42.20;;;;;;5029883;28;20395;-77
2023/10/12 11:32:28;;;;;;;26.67;10.93;;;20.90;40.70;;;;;;5030909;28;20399;-77
2023/10/12 11:34:59;;;;;;;21.33;11.27;;;20.70;42.10;;;;;;5029385;28;20392;-76
2023/10/12 11:37:29;;;;;;;17.75;10.20;;;20.60;42.50;;;;;;5031328;28;20415;-75
2023/10/12 11:39:57;;;;;;;24.42;11.23;;;20.50;43.60;;;;;;5029986;28;20387;-76
2023/10/12 11:42:23;;;;;;;25.17;12.05;;;20.50;43.70;;;;;;5030671;28;20383;-77
2023/10/12 11:44:51;;;;;;;24.27;10.98;;;20.50;43.50;;;;;;5031489;28;20957;-75
2023/10/12 11:47:25;;;;;;;20.83;10.55;;;20.60;42.70;;;;;;5031213;28;20402;-76
2023/10/12 11:49:55;;;;;;;21.80;10.60;;;20.60;41.40;;;;;;5031259;28;20387;-76
2023/10/12 11:55:06;;;;;;;21.45;10.55;;;20.50;42.80;;;;;;5030607;28;20407;-76
2023/10/12 11:57:40;;;;;;;17.67;10.63;;;20.50;43.20;;;;;;5029990;28;20722;-75
2023/10/12 12:00:21;;;;;;;18.10;10.13;;;20.50;43.00;;;;;;5028635;28;20544;-78
2023/10/12 12:02:48;;;;;;;19.60;10.00;;;20.60;42.70;;;;;;5024033;28;20393;-77
2023/10/12 12:05:14;;;;;;;17.70;9.83;;;20.60;43.20;;;;;;5024747;28;20403;-76
2023/10/12 12:07:39;;;;;;;20.17;10.70;;;20.60;42.40;;;;;;5029877;28;20399;-76
2023/10/12 12:10:07;;;;;;;20.65;10.57;;;20.60;42.60;;;;;;5028054;28;20882;-76
2023/10/12 12:12:38;;;;;;;18.15;9.95;;;20.50;43.30;;;;;;5028135;28;20877;-76
2023/10/12 12:15:14;;;;;;;16.15;9.60;;;20.40;44.10;;;;;;5028514;28;20502;-75
2023/10/12 12:17:40;;;;;;;22.40;10.00;;;20.40;44.90;;;;;;5027312;28;20393;-76
2023/10/12 12:20:15;;;;;;;17.70;10.77;;;20.40;45.60;;;;;;5025378;28;20871;-76
2023/10/12 12:22:43;;;;;;;19.95;10.15;;;20.40;45.50;;;;;;5028296;28;20395;-76
2023/10/12 12:25:18;;;;;;;20.88;10.88;;;20.60;46.00;;;;;;5028262;28;20395;-77
2023/10/12 12:28:14;;;;;;;20.08;11.15;;;20.80;45.10;;;;;;5008174;28;20389;-76
2023/10/12 12:30:46;;;;;;;19.15;10.48;;;21.00;45.10;;;;;;5006644;28;20479;-75
2023/10/12 12:33:15;;;;;;;24.58;10.73;;;21.00;44.80;;;;;;5021041;28;20411;-77
2023/10/12 12:35:45;;;;;;;22.92;10.80;;;21.10;45.10;;;;;;5028977;28;20402;-77
2023/10/12 12:38:40;;;;;;;17.48;9.77;;;21.30;43.80;;;;;;5029802;28;20391;-77
2023/10/12 12:41:06;;;;;;;21.08;10.02;;;21.40;41.70;;;;;;5030533;28;20383;-76
2023/10/12 12:43:34;;;;;;;21.38;10.90;;;21.50;41.60;;;;;;5030295;28;20394;-77
2023/10/12 12:46:00;;;;;;;22.10;10.43;;;21.50;41.60;;;;;;5026493;28;20399;-76
2023/10/12 12:48:26;;;;;;;17.20;10.60;;;21.70;40.60;;;;;;5030674;28;20395;-76
2023/10/12 12:50:51;;;;;;;25.10;10.20;;;21.90;39.50;;;;;;5031653;28;20446;-76
2023/10/12 12:53:20;;;;;;;26.00;9.80;;;21.90;38.90;;;;;;5030110;28;20833;-76
2023/10/12 12:55:46;;;;;;;22.15;9.50;;;21.80;38.70;;;;;;5030509;28;20394;-77
2023/10/12 12:58:15;;;;;;;16.70;9.02;;;21.90;37.10;;;;;;5030245;28;20431;-76
2023/10/12 13:00:42;;;;;;;20.02;9.00;;;21.60;38.30;;;;;;5030328;28;20422;-77
2023/10/12 13:03:09;;;;;;;11.30;7.70;;;21.50;38.70;;;;;;5030397;28;20478;-76
2023/10/12 13:05:35;;;;;;;17.20;7.82;;;21.40;37.00;;;;;;5030879;28;20749;-76
2023/10/12 13:08:00;;;;;;;15.88;7.93;;;21.20;38.40;;;;;;5030510;28;20390;-76
2023/10/12 13:10:26;;;;;;;17.17;8.63;;;21.10;39.30;;;;;;5029960;28;20769;-76
2023/10/12 13:12:52;;;;;;;22.67;8.50;;;20.90;39.60;;;;;;5031030;28;20494;-77
2023/10/12 13:15:18;;;;;;;18.83;7.90;;;20.80;41.20;;;;;;5029204;28;20399;-75
2023/10/12 13:17:44;;;;;;;14.63;6.60;;;20.70;41.80;;;;;;5029622;28;20483;-77
2023/10/12 13:20:28;;;;;;;15.90;7.15;;;20.70;38.90;;;;;;5029664;28;20383;-76
2023/10/12 13:22:54;;;;;;;16.30;7.53;;;20.60;40.10;;;;;;5029108;28;20472;-75
2023/10/12 13:25:20;;;;;;;13.50;6.75;;;20.40;39.30;;;;;;5029192;28;20402;-75
2023/10/12 13:27:49;;;;;;;15.52;7.18;;;20.30;40.40;;;;;;5029617;28;20864;-78
2023/10/12 13:30:15;;;;;;;15.33;7.80;;;20.20;40.30;;;;;;5029184;28;20441;-76
2023/10/12 13:32:42;;;;;;;15.55;8.20;;;20.20;40.30;;;;;;5028997;28;20497;-75
2023/10/12 13:35:31;;;;;;;17.40;8.27;;;20.10;41.00;;;;;;5030908;28;20466;-77
2023/10/12 13:37:59;;;;;;;19.45;8.10;;;20.10;41.20;;;;;;5030143;28;20889;-76
2023/10/12 13:40:26;;;;;;;16.67;8.20;;;20.00;41.80;;;;;;5030151;28;20391;-74
2023/10/12 13:42:51;;;;;;;16.45;8.20;;;20.10;40.80;;;;;;5033555;28;20413;-75
2023/10/12 13:45:21;;;;;;;16.93;8.00;;;20.00;42.00;;;;;;5033222;28;20387;-75
2023/10/12 13:47:47;;;;;;;18.85;8.73;;;20.00;42.10;;;;;;5033665;28;20437;-74
2023/10/12 13:50:13;;;;;;;16.75;8.63;;;20.10;42.00;;;;;;5033533;28;20878;-76
2023/10/12 13:52:39;;;;;;;18.10;8.40;;;20.10;41.60;;;;;;5033064;28;20433;-75
2023/10/12 13:55:14;;;;;;;22.85;8.10;;;20.10;41.70;;;;;;5033116;28;20386;-76
2023/10/12 13:57:57;;;;;;;17.60;7.70;;;20.10;41.40;;;;;;5031879;28;20391;-75
2023/10/12 14:00:26;;;;;;;16.63;7.53;;;20.10;41.90;;;;;;5033404;28;20380;-77
2023/10/12 14:02:56;;;;;;;19.92;8.55;;;20.10;42.10;;;;;;5031657;28;20395;-76
2023/10/12 14:05:27;;;;;;;20.88;9.45;;;20.10;42.60;;;;;;5033481;28;20754;-76
2023/10/12 14:07:58;;;;;;;22.05;8.10;;;20.10;43.30;;;;;;5035123;28;20387;-77
2023/10/12 14:10:26;;;;;;;19.60;8.02;;;20.00;43.40;;;;;;5037813;28;20469;-75
2023/10/12 14:12:53;;;;;;;15.27;8.45;;;20.00;43.40;;;;;;5035066;28;20505;-74
2023/10/12 14:15:21;;;;;;;18.10;8.00;;;20.10;42.60;;;;;;4976433;28;1766185;-76
2023/10/12 14:17:47;;;;;;;16.67;8.73;;;20.10;43.00;;;;;;5040048;28;20935;-75
2023/10/12 14:20:13;;;;;;;18.25;8.27;;;20.10;43.50;;;;;;5036713;28;20391;-75
2023/10/12 14:22:44;;;;;;;17.48;8.80;;;20.10;43.50;;;;;;5033453;28;20414;-75
2023/10/12 14:25:14;;;;;;;16.30;7.63;;;20.20;43.40;;;;;;5033311;28;20943;-77
2023/10/12 14:27:42;;;;;;;17.50;8.63;;;20.10;44.60;;;;;;5032701;28;20397;-77
2023/10/12 14:30:14;;;;;;;22.30;8.50;;;19.90;45.20;;;;;;5032841;28;20395;-76
2023/10/12 14:32:40;;;;;;;19.13;9.40;;;19.80;45.30;;;;;;5035491;28;20433;-76
2023/10/12 14:35:07;;;;;;;20.65;8.48;;;19.80;46.20;;;;;;5035113;28;20920;-76
2023/10/12 14:37:36;;;;;;;18.25;8.10;;;19.80;48.00;;;;;;5034428;28;20403;-77
2023/10/12 14:40:05;;;;;;;19.90;7.78;;;19.70;48.60;;;;;;5033090;28;20889;-76
2023/10/12 14:42:31;;;;;;;18.90;8.07;;;19.60;48.30;;;;;;5032314;28;20477;-76
2023/10/12 14:44:56;;;;;;;13.27;7.40;;;19.50;48.00;;;;;;5033634;28;20881;-75
2023/10/12 14:47:22;;;;;;;16.67;7.70;;;19.30;49.40;;;;;;5033729;28;20411;-77
2023/10/12 14:49:48;;;;;;;18.83;8.00;;;19.30;49.40;;;;;;5032555;28;20402;-77
2023/10/12 14:52:17;;;;;;;17.73;7.55;;;19.20;50.00;;;;;;5031670;28;20444;-77
2023/10/12 14:54:43;;;;;;;15.57;7.78;;;19.10;49.50;;;;;;5029357;28;20421;-76
2023/10/12 14:57:10;;;;;;;21.10;7.97;;;19.00;50.20;;;;;;5027635;28;20474;-76
2023/10/12 14:59:36;;;;;;;15.68;7.40;;;19.00;50.30;;;;;;5032669;28;20746;-76
2023/10/12 15:02:09;;;;;;;14.53;7.10;;;19.10;49.30;;;;;;5033734;28;20476;-77
2023/10/12 15:04:41;;;;;;;16.48;7.68;;;19.10;49.70;;;;;;5028824;28;20415;-76
2023/10/12 15:07:09;;;;;;;28.33;8.60;;;19.10;50.20;;;;;;5022201;28;20927;-77
2023/10/12 15:09:35;;;;;;;16.27;7.88;;;19.10;50.00;;;;;;5032337;28;20960;-76
2023/10/12 15:12:05;;;;;;;15.33;7.40;;;19.20;49.30;;;;;;5033131;28;20422;-77
2023/10/12 15:14:33;;;;;;;16.83;7.83;;;19.20;49.50;;;;;;5031486;28;20395;-78
2023/10/12 15:16:59;;;;;;;17.58;7.63;;;19.20;49.60;;;;;;5034275;28;20778;-76
2023/10/12 15:19:27;;;;;;;15.80;7.30;;;19.30;49.00;;;;;;5041097;28;20383;-77
2023/10/12 15:21:53;;;;;;;16.65;7.93;;;19.20;49.30;;;;;;5035114;28;20391;-77
2023/10/12 15:24:19;;;;;;;13.60;7.10;;;19.10;50.00;;;;;;5034439;28;20399;-76
2023/10/12 15:26:45;;;;;;;11.65;6.88;;;19.10;50.00;;;;;;5037935;28;20405;-77
2023/10/12 15:29:11;;;;;;;15.13;7.88;;;19.00;50.20;;;;;;5039011;28;20379;-76
2023/10/12 15:31:37;;;;;;;18.43;8.10;;;19.00;50.80;;;;;;5041091;28;20498;-75
2023/10/12 15:34:02;;;;;;;17.53;8.30;;;19.00;51.80;;;;;;5046909;28;20478;-77
2023/10/12 15:36:28;;;;;;;19.17;8.00;;;18.90;52.10;;;;;;5046401;28;20383;-76
2023/10/12 15:38:54;;;;;;;12.60;7.10;;;18.90;51.40;;;;;;5037101;28;20393;-76
2023/10/12 15:41:20;;;;;;;16.25;7.57;;;18.90;51.50;;;;;;5036053;28;20419;-79
2023/10/12 15:43:46;;;;;;;17.85;8.80;;;18.90;51.80;;;;;;5035275;28;20466;-77
2023/10/12 15:46:11;;;;;;;14.32;7.13;;;18.80;52.40;;;;;;5021400;28;20391;-76